createdAt,value
2022-09-03T00:01:14.801Z,59.11
2022-09-03T00:05:34.538Z,59.20
2022-09-03T00:09:45.676Z,59.42
2022-09-03T00:13:59.645Z,59.56
2022-09-03T00:18:09.967Z,59.81
2022-09-03T00:22:21.009Z,59.88
2022-09-03T00:26:31.946Z,59.85
2022-09-03T00:30:41.005Z,59.78
2022-09-03T00:34:52.636Z,59.67
2022-09-03T00:39:02.470Z,59.93
2022-09-03T00:43:19.864Z,60.43
2022-09-03T00:47:34.202Z,60.40
2022-09-03T00:51:46.732Z,60.85
2022-09-03T00:55:58.910Z,61.49
2022-09-03T01:00:11.520Z,61.58
2022-09-03T01:04:30.226Z,61.81
2022-09-03T01:08:58.157Z,61.73
2022-09-03T01:13:11.380Z,61.44
2022-09-03T01:17:27.528Z,61.42
2022-09-03T01:21:54.468Z,61.76
2022-09-03T01:26:11.365Z,61.72
2022-09-03T01:30:24.297Z,62.03
2022-09-03T01:34:43.652Z,62.08
2022-09-03T01:38:55.357Z,62.26
2022-09-03T01:43:19.126Z,62.31
2022-09-03T01:47:34.162Z,62.89
2022-09-03T01:51:43.227Z,63.40
2022-09-03T01:56:00.202Z,63.85
2022-09-03T02:00:13.241Z,63.86
2022-09-03T02:04:25.079Z,64.45
2022-09-03T02:08:32.857Z,64.83
2022-09-03T02:12:43.450Z,65.21
2022-09-03T02:16:51.419Z,65.66
2022-09-03T02:21:00.765Z,65.71
2022-09-03T02:25:11.430Z,66.20
2022-09-03T02:29:20.246Z,66.29
2022-09-03T02:33:28.446Z,66.54
2022-09-03T02:37:36.472Z,66.62
2022-09-03T02:41:44.869Z,67.15
2022-09-03T02:45:57.200Z,67.28
2022-09-03T02:50:06.430Z,67.75
2022-09-03T02:54:20.219Z,68.10
2022-09-03T02:58:28.896Z,68.14
2022-09-03T03:02:37.267Z,68.54
2022-09-03T03:06:47.744Z,68.93
2022-09-03T03:10:58.953Z,69.53
2022-09-03T03:15:07.911Z,70.16
2022-09-03T03:19:15.264Z,70.69
2022-09-03T03:23:23.897Z,71.11
2022-09-03T03:27:31.922Z,71.32
2022-09-03T03:31:41.355Z,70.85
2022-09-03T03:35:49.972Z,70.53
2022-09-03T03:39:58.236Z,70.85
2022-09-03T03:44:08.727Z,71.08
2022-09-03T03:48:16.711Z,71.00
2022-09-03T03:52:26.195Z,71.40
2022-09-03T03:56:34.422Z,71.71
2022-09-03T04:00:46.236Z,71.61
2022-09-03T04:04:54.157Z,71.83
2022-09-03T04:09:02.270Z,71.84
2022-09-03T04:13:10.359Z,71.75
2022-09-03T04:17:22.081Z,71.92
2022-09-03T04:21:34.159Z,72.06
2022-09-03T04:25:45.279Z,72.23
2022-09-03T04:29:53.094Z,72.69
2022-09-03T04:34:02.259Z,72.73
2022-09-03T04:38:11.296Z,73.07
2022-09-03T04:42:19.320Z,73.83
2022-09-03T04:46:30.480Z,74.86
2022-09-03T04:50:38.395Z,75.23
2022-09-03T04:54:46.308Z,74.86
2022-09-03T04:58:58.668Z,74.77
2022-09-03T05:03:06.407Z,75.02
2022-09-03T05:07:15.225Z,74.93
2022-09-03T05:11:23.286Z,75.33
2022-09-03T05:15:31.628Z,75.34
2022-09-03T05:19:39.612Z,75.09
2022-09-03T05:23:48.895Z,75.34
2022-09-03T05:27:57.806Z,75.26
2022-09-03T05:32:08.150Z,74.68
2022-09-03T05:36:19.762Z,74.18
2022-09-03T05:40:27.605Z,73.75
2022-09-03T05:44:37.012Z,72.99
2022-09-03T05:48:45.022Z,72.38
2022-09-03T05:52:53.150Z,71.95
2022-09-03T05:57:01.303Z,71.69
2022-09-03T06:01:16.145Z,71.21
2022-09-03T06:05:25.073Z,70.93
2022-09-03T06:09:33.141Z,70.42
2022-09-03T06:13:41.258Z,69.79
2022-09-03T06:17:49.718Z,69.14
2022-09-03T06:21:57.464Z,68.56
2022-09-03T06:26:07.492Z,67.28
2022-09-03T06:30:17.023Z,65.70
2022-09-03T06:34:27.358Z,65.78
2022-09-03T06:38:36.557Z,65.69
2022-09-03T06:42:46.651Z,65.06
2022-09-03T06:46:54.984Z,64.16
2022-09-03T06:51:04.332Z,63.31
2022-09-03T06:55:13.227Z,63.23
2022-09-03T06:59:20.899Z,63.08
2022-09-03T07:03:30.087Z,63.07
2022-09-03T07:07:39.021Z,62.82
2022-09-03T07:11:50.035Z,62.82
2022-09-03T07:16:04.667Z,62.80
2022-09-03T07:20:13.203Z,62.56
2022-09-03T07:24:22.594Z,61.83
2022-09-03T07:28:32.262Z,60.83
2022-09-03T07:32:41.169Z,60.84
2022-09-03T07:36:51.981Z,60.20
2022-09-03T07:41:03.896Z,59.63
2022-09-03T07:45:12.579Z,59.49
2022-09-03T07:49:21.664Z,59.38
2022-09-03T07:53:30.031Z,58.98
2022-09-03T07:57:37.376Z,58.52
2022-09-03T08:01:45.216Z,58.41
2022-09-03T08:05:53.401Z,58.11
2022-09-03T08:10:01.891Z,57.38
2022-09-03T08:14:12.623Z,57.42
2022-09-03T08:18:23.437Z,56.88
2022-09-03T08:22:32.575Z,55.68
2022-09-03T08:26:42.466Z,55.67
2022-09-03T08:30:51.436Z,54.96
2022-09-03T08:35:00.012Z,54.84
2022-09-03T08:39:11.023Z,54.53
2022-09-03T08:43:20.861Z,54.28
2022-09-03T08:47:34.294Z,54.29
2022-09-03T08:51:45.352Z,53.37
2022-09-03T08:55:56.870Z,53.98
2022-09-03T09:00:06.149Z,53.25
2022-09-03T09:04:26.430Z,53.00
2022-09-03T09:08:39.760Z,52.31
2022-09-03T09:13:01.628Z,52.38
2022-09-03T09:17:19.677Z,52.17
2022-09-03T09:21:31.471Z,51.59
2022-09-03T09:25:47.353Z,51.93
2022-09-03T09:29:56.175Z,51.78
2022-09-03T09:34:09.049Z,51.42
2022-09-03T09:38:17.687Z,51.27
2022-09-03T09:42:26.584Z,50.31
2022-09-03T09:46:39.691Z,50.46
2022-09-03T09:50:50.798Z,50.18
2022-09-03T09:55:13.253Z,50.00
2022-09-03T09:59:22.409Z,49.71
2022-09-03T10:03:31.537Z,49.53
2022-09-03T10:07:40.675Z,48.84
2022-09-03T10:11:52.167Z,48.21
2022-09-03T10:16:04.849Z,48.47
2022-09-03T10:20:32.577Z,48.64
2022-09-03T10:24:52.745Z,48.79
2022-09-03T10:29:03.902Z,47.98
2022-09-03T10:33:15.849Z,47.68
2022-09-03T10:37:31.237Z,47.34
2022-09-03T10:41:48.172Z,47.00
2022-09-03T10:46:06.369Z,46.68
2022-09-03T10:50:18.165Z,46.31
2022-09-03T10:54:40.200Z,46.62
2022-09-03T10:59:00.747Z,46.40
2022-09-03T11:03:39.399Z,46.29
2022-09-03T11:07:51.003Z,45.37
2022-09-03T11:12:02.266Z,45.27
2022-09-03T11:16:15.422Z,45.25
2022-09-03T11:20:25.428Z,44.82
2022-09-03T11:24:35.383Z,45.05
2022-09-03T11:28:50.329Z,45.33
2022-09-03T11:33:00.826Z,44.57
2022-09-03T11:37:20.365Z,44.72
2022-09-03T11:41:30.062Z,44.04
2022-09-03T11:45:42.346Z,43.74
2022-09-03T11:49:51.858Z,44.93
2022-09-03T11:54:02.202Z,43.61
2022-09-03T11:58:25.078Z,43.48
2022-09-03T12:02:34.880Z,43.94
2022-09-03T12:07:07.946Z,44.10
2022-09-03T12:11:37.287Z,43.91
2022-09-03T12:16:18.582Z,43.65
2022-09-03T12:20:30.956Z,43.56
2022-09-03T12:24:38.954Z,44.42
2022-09-03T12:28:49.482Z,45.15
2022-09-03T12:33:08.699Z,44.42
2022-09-03T12:42:04.283Z,44.43
2022-09-03T12:46:18.514Z,44.35
2022-09-03T12:50:27.446Z,44.36
2022-09-03T12:54:35.617Z,44.09
2022-09-03T12:58:50.904Z,42.97
2022-09-03T13:03:02.356Z,42.32
2022-09-03T13:07:15.501Z,42.67
2022-09-03T13:11:24.926Z,42.27
2022-09-03T13:15:33.262Z,41.96
2022-09-03T13:19:48.848Z,41.92
2022-09-03T13:24:15.310Z,42.02
2022-09-03T13:28:31.951Z,41.21
2022-09-03T13:32:46.505Z,41.01
2022-09-03T13:36:58.368Z,41.04
2022-09-03T13:41:20.141Z,40.74
2022-09-03T13:45:39.345Z,41.44
2022-09-03T13:50:13.636Z,41.76
2022-09-03T13:54:47.699Z,43.01
2022-09-03T13:58:57.836Z,43.40
2022-09-03T14:03:16.918Z,43.33
2022-09-03T14:07:27.559Z,43.51
2022-09-03T14:11:43.952Z,42.83
2022-09-03T14:15:59.708Z,42.94
2022-09-03T14:20:10.163Z,43.27
2022-09-03T14:24:24.465Z,42.39
2022-09-03T14:28:37.880Z,41.34
2022-09-03T14:32:52.446Z,40.97
2022-09-03T14:37:07.472Z,41.00
2022-09-03T14:41:30.940Z,41.71
2022-09-03T14:46:17.238Z,41.72
2022-09-03T14:50:36.117Z,41.39
2022-09-03T14:55:04.835Z,41.32
2022-09-03T14:59:32.551Z,40.78
2022-09-03T15:04:16.543Z,40.90
2022-09-03T15:08:37.239Z,41.77
2022-09-03T15:12:46.896Z,41.84
2022-09-03T15:17:01.561Z,42.15
2022-09-03T15:21:18.924Z,42.05
2022-09-03T15:25:33.513Z,42.33
2022-09-03T15:29:54.781Z,42.10
2022-09-03T15:34:10.597Z,42.72
2022-09-03T15:38:26.842Z,42.52
2022-09-03T15:42:34.861Z,42.87
2022-09-03T15:46:52.460Z,43.33
2022-09-03T15:51:14.839Z,44.16
2022-09-03T15:55:35.345Z,44.13
2022-09-03T15:59:48.619Z,44.54
2022-09-03T16:04:09.947Z,45.08
2022-09-03T16:08:23.745Z,45.08
2022-09-03T16:12:36.226Z,45.91
2022-09-03T16:16:59.592Z,45.92
2022-09-03T16:21:16.630Z,46.27
2022-09-03T16:25:32.175Z,46.75
2022-09-03T16:29:41.461Z,47.12
2022-09-03T16:38:49.106Z,47.94
2022-09-03T16:43:38.857Z,48.27
2022-09-03T16:48:06.523Z,48.87
2022-09-03T16:52:37.635Z,49.28
2022-09-03T16:57:00.578Z,49.66
2022-09-03T17:01:18.999Z,50.07
2022-09-03T17:05:57.275Z,50.51
2022-09-03T17:10:16.089Z,51.01
2022-09-03T17:14:37.181Z,51.42
2022-09-03T17:18:53.777Z,51.92
2022-09-03T17:23:12.252Z,52.11
2022-09-03T17:27:37.341Z,52.42
2022-09-03T17:31:51.604Z,52.65
2022-09-03T17:36:06.680Z,52.98
2022-09-03T17:40:26.887Z,53.50
2022-09-03T17:44:48.121Z,53.79
2022-09-03T17:48:56.362Z,54.01
2022-09-03T17:53:11.745Z,54.59
2022-09-03T17:57:25.026Z,54.80
2022-09-03T18:01:37.339Z,55.33
2022-09-03T18:05:51.633Z,55.69
2022-09-03T18:10:09.288Z,55.89
2022-09-03T18:14:24.544Z,56.36
2022-09-03T18:18:34.021Z,56.63
2022-09-03T18:23:08.321Z,56.80
2022-09-03T18:27:36.925Z,57.16
2022-09-03T18:32:02.942Z,57.76
2022-09-03T18:36:28.858Z,58.31
2022-09-03T18:41:02.190Z,58.59
2022-09-03T18:45:42.269Z,58.99
2022-09-03T18:50:24.375Z,59.40
2022-09-03T18:55:08.621Z,59.85
2022-09-03T18:59:45.672Z,60.36
2022-09-03T19:04:19.661Z,60.89
2022-09-03T19:08:48.231Z,61.29
2022-09-03T19:13:30.007Z,61.59
2022-09-03T19:18:09.128Z,62.25
2022-09-03T19:22:37.243Z,62.75
2022-09-03T19:27:24.821Z,63.08
2022-09-03T19:32:04.590Z,63.32
2022-09-03T19:36:38.177Z,63.59
2022-09-03T19:41:24.322Z,63.86
2022-09-03T19:45:57.262Z,64.08
2022-09-03T19:50:31.065Z,64.26
2022-09-03T19:54:57.737Z,64.41
2022-09-03T19:59:25.634Z,64.43
2022-09-03T20:03:51.064Z,64.57
2022-09-03T20:08:16.995Z,64.95
2022-09-03T20:12:28.191Z,64.93
2022-09-03T20:16:40.670Z,65.18
2022-09-03T20:20:53.464Z,65.32
2022-09-03T20:25:17.915Z,65.49
2022-09-03T20:29:37.780Z,65.71
2022-09-03T20:33:55.533Z,65.66
2022-09-03T20:38:11.793Z,65.83
2022-09-03T20:42:37.709Z,65.93
2022-09-03T20:46:58.727Z,66.31
2022-09-03T20:51:12.007Z,66.63
2022-09-03T20:55:23.361Z,66.85
2022-09-03T20:59:39.804Z,67.03
2022-09-03T21:03:51.206Z,67.40
2022-09-03T21:08:11.709Z,67.62
2022-09-03T21:12:25.771Z,68.13
2022-09-03T21:16:42.444Z,68.61
2022-09-03T21:20:57.199Z,69.05
2022-09-03T21:25:08.428Z,69.29
2022-09-03T21:29:23.947Z,69.12
2022-09-03T21:33:36.428Z,68.77
2022-09-03T21:37:49.303Z,69.22
2022-09-03T21:41:59.552Z,69.75
2022-09-03T21:46:10.163Z,70.11
2022-09-03T21:50:21.439Z,70.09
2022-09-03T21:54:31.751Z,70.15
2022-09-03T21:58:51.501Z,70.03
2022-09-03T22:02:59.888Z,70.31
2022-09-03T22:07:13.698Z,70.26
2022-09-03T22:11:25.205Z,70.29
2022-09-03T22:15:33.655Z,70.79
2022-09-03T22:19:42.870Z,71.40
2022-09-03T22:24:04.665Z,71.92
2022-09-03T22:28:16.092Z,72.23
2022-09-03T22:32:33.923Z,72.11
2022-09-03T22:36:47.607Z,71.87
2022-09-03T22:40:59.935Z,72.37
2022-09-03T22:45:33.772Z,72.49
2022-09-03T22:49:46.887Z,72.06
2022-09-03T22:54:10.904Z,72.02
2022-09-03T22:58:22.424Z,72.00
2022-09-03T23:02:32.668Z,72.14
2022-09-03T23:06:44.157Z,72.15
2022-09-03T23:11:01.143Z,72.95
2022-09-03T23:15:12.010Z,73.32
2022-09-03T23:23:33.403Z,73.05
2022-09-03T23:27:44.959Z,73.08
2022-09-03T23:31:54.840Z,73.31
2022-09-03T23:36:08.481Z,73.55
2022-09-03T23:40:28.429Z,73.42
2022-09-03T23:44:46.166Z,73.01
2022-09-03T23:49:25.407Z,73.48
2022-09-03T23:53:41.193Z,73.79
2022-09-03T23:57:57.286Z,73.67
